Time;durP1;ratioP1;P1;durP2;ratioP2;P2;SDS_P1;SDS_P2;PMS_P1;PMS_P2;Temp;Humidity;BMP_temperature;BMP_pressure;BME280_temperature;BME280_humidity;BME280_pressure;Samples;Min_cycle;Max_cycle;Signal;HPM_P1;HPM_P2
2023/06/28 00:01:48;;;;;;;;;4.00;3.00;;;;;;;;5061176;28;45398;-77
2023/06/28 00:04:13;;;;;;;;;4.67;3.33;;;;;;;;5060606;28;45400;-79
2023/06/28 00:06:38;;;;;;;;;7.00;6.00;;;;;;;;5042197;28;47081;-81
2023/06/28 00:09:03;;;;;;;;;6.00;4.00;;;;;;;;5050932;28;45471;-79
2023/06/28 00:11:29;;;;;;;;;5.00;4.67;;;;;;;;5049609;28;44839;-80
2023/06/28 00:13:54;;;;;;;;;3.00;2.67;;;;;;;;5050610;28;45934;-80
2023/06/28 00:16:20;;;;;;;;;2.00;1.00;;;;;;;;5041084;28;46583;-80
2023/06/28 00:18:45;;;;;;;;;3.00;3.00;;;;;;;;5037621;28;46958;-78
2023/06/28 00:21:13;;;;;;;;;4.67;1.67;;;;;;;;5053514;28;45695;-78
2023/06/28 00:23:39;;;;;;;;;2.50;2.50;;;;;;;;5055675;28;45954;-80
2023/06/28 00:26:04;;;;;;;;;2.00;0.67;;;;;;;;5062193;28;45887;-79
2023/06/28 00:28:29;;;;;;;;;5.33;4.67;;;;;;;;5047822;28;45515;-80
2023/06/28 00:30:54;;;;;;;;;2.33;2.33;;;;;;;;5051483;28;45762;-78
2023/06/28 00:33:20;;;;;;;;;4.00;3.00;;;;;;;;5056297;28;46931;-80
2023/06/28 00:35:46;;;;;;;;;3.33;3.00;;;;;;;;5056567;28;45812;-80
2023/06/28 00:38:11;;;;;;;;;3.00;3.00;;;;;;;;5055084;28;46343;-79
2023/06/28 00:40:36;;;;;;;;;4.00;2.00;;;;;;;;5053163;28;45369;-79
2023/06/28 00:43:02;;;;;;;;;3.67;3.00;;;;;;;;5057728;28;45357;-79
2023/06/28 00:45:27;;;;;;;;;4.33;3.00;;;;;;;;5049943;28;45439;-80
2023/06/28 00:47:52;;;;;;;;;3.00;3.00;;;;;;;;5051793;28;48574;-79
2023/06/28 00:50:18;;;;;;;;;5.33;5.33;;;;;;;;5045739;28;45787;-80
2023/06/28 00:52:44;;;;;;;;;5.33;5.00;;;;;;;;5039049;28;45619;-79
2023/06/28 00:55:10;;;;;;;;;4.00;4.00;;;;;;;;5055697;28;45309;-81
2023/06/28 00:57:35;;;;;;;;;6.67;4.33;;;;;;;;5060794;28;45452;-81
2023/06/28 01:00:01;;;;;;;;;15.00;10.00;;;;;;;;5055826;28;45421;-77
2023/06/28 01:02:29;;;;;;;;;8.00;4.00;;;;;;;;5055592;28;45871;-79
2023/06/28 01:04:57;;;;;;;;;2.00;2.00;;;;;;;;5054119;28;46852;-81
2023/06/28 01:07:24;;;;;;;;;3.00;3.00;;;;;;;;5054476;28;46281;-81
2023/06/28 01:09:49;;;;;;;;;3.67;2.00;;;;;;;;5054877;28;45713;-80
2023/06/28 01:12:14;;;;;;;;;4.00;3.00;;;;;;;;5066810;28;45477;-79
2023/06/28 01:14:39;;;;;;;;;2.33;1.33;;;;;;;;5054643;28;45307;-80
2023/06/28 01:17:05;;;;;;;;;4.00;3.67;;;;;;;;5062568;28;45516;-79
2023/06/28 01:19:31;;;;;;;;;4.67;2.67;;;;;;;;5066629;28;45366;-79
2023/06/28 01:21:59;;;;;;;;;5.00;3.00;;;;;;;;5065347;27;45550;-79
2023/06/28 01:24:24;;;;;;;;;3.00;3.00;;;;;;;;5060267;28;45477;-79
2023/06/28 01:26:52;;;;;;;;;3.00;3.00;;;;;;;;5046263;28;46066;-81
2023/06/28 01:29:21;;;;;;;;;3.67;3.67;;;;;;;;5031228;28;47043;-79
2023/06/28 01:31:56;;;;;;;;;4.00;3.00;;;;;;;;5058777;28;45385;-79
2023/06/28 01:34:30;;;;;;;;;1.33;1.33;;;;;;;;5056817;28;45833;-81
2023/06/28 01:36:56;;;;;;;;;4.00;3.00;;;;;;;;5059982;28;46273;-81
2023/06/28 01:39:22;;;;;;;;;3.00;3.00;;;;;;;;5046959;28;45338;-80
2023/06/28 01:41:48;;;;;;;;;8.00;2.00;;;;;;;;5056595;28;46166;-81
2023/06/28 01:44:13;;;;;;;;;8.67;4.00;;;;;;;;5032365;28;45921;-80
2023/06/28 01:46:39;;;;;;;;;6.00;4.00;;;;;;;;5041201;28;45553;-80
2023/06/28 01:49:04;;;;;;;;;3.00;3.00;;;;;;;;5049272;28;46427;-80
2023/06/28 01:51:34;;;;;;;;;3.00;3.00;;;;;;;;5040583;28;45475;-79
2023/06/28 01:53:59;;;;;;;;;3.67;2.67;;;;;;;;5044211;28;47310;-81
2023/06/28 01:56:24;;;;;;;;;3.00;2.67;;;;;;;;5056378;28;46609;-79
2023/06/28 01:58:49;;;;;;;;;3.67;3.00;;;;;;;;5058310;28;45660;-82
2023/06/28 02:01:15;;;;;;;;;5.33;2.67;;;;;;;;5033479;28;45475;-81
2023/06/28 02:03:40;;;;;;;;;6.33;5.33;;;;;;;;5046035;28;46981;-81
2023/06/28 02:06:05;;;;;;;;;3.00;3.00;;;;;;;;5043430;28;45517;-80
2023/06/28 02:08:30;;;;;;;;;3.67;3.33;;;;;;;;5060925;28;45565;-80
2023/06/28 02:10:56;;;;;;;;;2.67;2.67;;;;;;;;5053489;28;45413;-80
2023/06/28 02:13:21;;;;;;;;;4.00;2.00;;;;;;;;5060146;28;45450;-81
2023/06/28 02:15:46;;;;;;;;;5.00;3.00;;;;;;;;5051697;28;47049;-80
2023/06/28 02:18:14;;;;;;;;;2.00;2.00;;;;;;;;5066336;28;45556;-78
2023/06/28 02:20:39;;;;;;;;;6.33;2.00;;;;;;;;5053521;28;45735;-79
2023/06/28 02:23:04;;;;;;;;;3.00;3.00;;;;;;;;5052566;28;45811;-80
2023/06/28 02:25:30;;;;;;;;;4.00;2.67;;;;;;;;5052419;28;46438;-80
2023/06/28 02:27:55;;;;;;;;;3.33;3.33;;;;;;;;5060404;28;44815;-80
2023/06/28 02:30:20;;;;;;;;;2.00;2.00;;;;;;;;5036035;28;45789;-81
2023/06/28 02:32:45;;;;;;;;;4.00;3.00;;;;;;;;5059862;28;45687;-80
2023/06/28 02:35:11;;;;;;;;;3.67;3.67;;;;;;;;5036433;28;48538;-81
2023/06/28 02:37:37;;;;;;;;;6.00;4.33;;;;;;;;5033482;28;45811;-80
2023/06/28 02:40:03;;;;;;;;;5.67;3.67;;;;;;;;5049420;28;45567;-80
2023/06/28 02:42:28;;;;;;;;;2.67;2.67;;;;;;;;5052431;28;45427;-79
2023/06/28 02:44:53;;;;;;;;;6.67;4.00;;;;;;;;5051964;28;45693;-79
2023/06/28 02:47:18;;;;;;;;;6.33;3.00;;;;;;;;5036813;28;45480;-79
2023/06/28 02:49:43;;;;;;;;;5.00;3.00;;;;;;;;5053100;28;45363;-80
2023/06/28 02:52:09;;;;;;;;;3.33;0.33;;;;;;;;5051299;28;45365;-80
2023/06/28 02:54:34;;;;;;;;;3.00;2.00;;;;;;;;5056097;28;46183;-78
2023/06/28 02:56:59;;;;;;;;;6.00;3.00;;;;;;;;5055241;28;45676;-80
2023/06/28 02:59:25;;;;;;;;;5.33;4.67;;;;;;;;5053354;28;45538;-79
2023/06/28 03:01:50;;;;;;;;;1.00;0.00;;;;;;;;5041968;28;46084;-81
2023/06/28 03:04:15;;;;;;;;;4.33;3.00;;;;;;;;5047281;28;46527;-78
2023/06/28 03:06:43;;;;;;;;;4.00;3.33;;;;;;;;5051418;28;45663;-80
2023/06/28 03:09:08;;;;;;;;;4.00;4.00;;;;;;;;5062544;28;45644;-80
2023/06/28 03:11:34;;;;;;;;;3.00;3.00;;;;;;;;5066351;28;45588;-80
2023/06/28 03:14:01;;;;;;;;;3.67;3.00;;;;;;;;5054454;28;48262;-82
2023/06/28 03:16:26;;;;;;;;;2.00;2.00;;;;;;;;5050342;28;45701;-80
2023/06/28 03:18:51;;;;;;;;;3.00;1.67;;;;;;;;5057435;28;45669;-79
2023/06/28 03:21:16;;;;;;;;;2.33;2.33;;;;;;;;5061074;28;45762;-79
2023/06/28 03:23:42;;;;;;;;;7.33;3.67;;;;;;;;5057336;28;46040;-77
2023/06/28 03:26:07;;;;;;;;;3.33;2.00;;;;;;;;5059548;28;45451;-77
2023/06/28 03:28:32;;;;;;;;;2.00;2.00;;;;;;;;5054357;28;45390;-78
2023/06/28 03:30:58;;;;;;;;;5.00;4.00;;;;;;;;5045951;28;45360;-78
2023/06/28 03:33:23;;;;;;;;;6.33;3.00;;;;;;;;5033880;28;48155;-78
2023/06/28 03:35:48;;;;;;;;;2.67;2.00;;;;;;;;5053094;28;45311;-78
2023/06/28 03:38:15;;;;;;;;;3.67;2.67;;;;;;;;5053995;28;45627;-78
2023/06/28 03:40:40;;;;;;;;;4.00;2.67;;;;;;;;5050090;28;45528;-77
2023/06/28 03:43:05;;;;;;;;;5.33;4.67;;;;;;;;5047471;28;46322;-78
2023/06/28 03:45:33;;;;;;;;;3.00;2.00;;;;;;;;5045517;28;45566;-78
2023/06/28 03:47:59;;;;;;;;;4.00;4.00;;;;;;;;5055481;28;45573;-80
2023/06/28 03:50:24;;;;;;;;;6.00;4.00;;;;;;;;5066996;28;45499;-78
2023/06/28 03:52:49;;;;;;;;;3.67;3.00;;;;;;;;5051173;28;45879;-81
2023/06/28 03:55:16;;;;;;;;;4.00;4.00;;;;;;;;5044400;28;45718;-81
2023/06/28 03:57:41;;;;;;;;;4.00;2.67;;;;;;;;5061145;28;45703;-83
2023/06/28 04:00:10;;;;;;;;;3.33;3.33;;;;;;;;5059408;28;45540;-82
2023/06/28 04:02:35;;;;;;;;;3.67;3.33;;;;;;;;5044106;28;47171;-81
2023/06/28 04:05:00;;;;;;;;;5.67;4.33;;;;;;;;5038268;28;45531;-81
2023/06/28 04:07:26;;;;;;;;;4.67;3.33;;;;;;;;5055334;28;45345;-80
2023/06/28 04:09:51;;;;;;;;;4.33;4.33;;;;;;;;5055831;28;45556;-82
2023/06/28 04:12:17;;;;;;;;;8.33;6.33;;;;;;;;5038111;28;47553;-83
2023/06/28 04:14:42;;;;;;;;;5.67;4.00;;;;;;;;5040080;28;45806;-81
2023/06/28 04:17:07;;;;;;;;;4.33;4.00;;;;;;;;5044083;28;45698;-80
2023/06/28 04:19:32;;;;;;;;;2.00;2.00;;;;;;;;5056348;28;45850;-81
2023/06/28 04:21:58;;;;;;;;;5.67;3.33;;;;;;;;5037757;28;47179;-82
2023/06/28 04:24:24;;;;;;;;;4.33;4.33;;;;;;;;5037110;28;45690;-82
2023/06/28 04:26:49;;;;;;;;;4.67;3.67;;;;;;;;5045364;28;45475;-81
2023/06/28 04:29:14;;;;;;;;;5.67;4.00;;;;;;;;5053100;28;45496;-79
2023/06/28 04:31:40;;;;;;;;;4.00;4.00;;;;;;;;5054729;28;47276;-79
2023/06/28 04:34:05;;;;;;;;;3.67;3.00;;;;;;;;5034342;28;45748;-80
2023/06/28 04:36:30;;;;;;;;;9.33;7.00;;;;;;;;5057379;28;45344;-80
2023/06/28 04:38:56;;;;;;;;;46.67;33.67;;;;;;;;5048754;28;45506;-80
2023/06/28 04:41:21;;;;;;;;;3.00;3.00;;;;;;;;5046278;28;45652;-80
2023/06/28 04:43:47;;;;;;;;;7.67;4.67;;;;;;;;5054394;28;46192;-79
2023/06/28 04:46:12;;;;;;;;;10.67;7.67;;;;;;;;5046350;28;47109;-80
2023/06/28 04:48:38;;;;;;;;;6.00;6.00;;;;;;;;5031740;28;46017;-80
2023/06/28 04:51:04;;;;;;;;;11.33;10.33;;;;;;;;5032579;28;46423;-81
2023/06/28 04:53:29;;;;;;;;;4.67;4.00;;;;;;;;5031152;28;45712;-81
2023/06/28 04:55:54;;;;;;;;;3.75;3.75;;;;;;;;5050197;28;45696;-79
2023/06/28 04:58:19;;;;;;;;;4.67;3.67;;;;;;;;5050519;28;45820;-81
2023/06/28 05:00:45;;;;;;;;;9.67;6.33;;;;;;;;5051246;28;45786;-81
2023/06/28 05:03:10;;;;;;;;;5.25;4.00;;;;;;;;5049857;28;45597;-81
2023/06/28 05:05:36;;;;;;;;;4.50;3.50;;;;;;;;5058222;28;45718;-82
2023/06/28 05:08:03;;;;;;;;;3.25;3.25;;;;;;;;5048357;28;45876;-80
2023/06/28 05:10:28;;;;;;;;;3.50;2.25;;;;;;;;5053753;28;45733;-80
2023/06/28 05:12:53;;;;;;;;;5.00;3.75;;;;;;;;5060194;28;45690;-81
2023/06/28 05:15:19;;;;;;;;;8.25;4.25;;;;;;;;5041251;28;45534;-81
2023/06/28 05:17:44;;;;;;;;;3.00;3.00;;;;;;;;5044733;28;45798;-81
2023/06/28 05:20:10;;;;;;;;;4.00;4.00;;;;;;;;5065364;28;45550;-80
2023/06/28 05:22:40;;;;;;;;;2.00;2.00;;;;;;;;5056683;28;45594;-84
2023/06/28 05:25:06;;;;;;;;;2.00;2.00;;;;;;;;5053068;28;45821;-80
2023/06/28 05:27:31;;;;;;;;;2.25;2.25;;;;;;;;5056923;28;45603;-78
2023/06/28 05:29:56;;;;;;;;;2.00;2.00;;;;;;;;5044168;28;47299;-81
2023/06/28 05:32:22;;;;;;;;;5.75;4.00;;;;;;;;5050263;28;45463;-79
2023/06/28 05:34:47;;;;;;;;;4.00;4.00;;;;;;;;5058750;28;45560;-81
2023/06/28 05:37:12;;;;;;;;;8.50;5.50;;;;;;;;5056913;28;45465;-79
2023/06/28 05:39:38;;;;;;;;;3.00;3.00;;;;;;;;5063407;28;46041;-79
2023/06/28 05:42:03;;;;;;;;;5.25;4.50;;;;;;;;5058921;28;45862;-77
2023/06/28 05:44:28;;;;;;;;;3.00;1.25;;;;;;;;5062280;28;45776;-76
2023/06/28 05:46:57;;;;;;;;;3.50;3.00;;;;;;;;5068966;28;45520;-79
2023/06/28 05:49:22;;;;;;;;;4.75;4.75;;;;;;;;5058541;28;46224;-79
2023/06/28 05:51:47;;;;;;;;;3.00;2.00;;;;;;;;5065206;28;45306;-79
2023/06/28 05:54:12;;;;;;;;;3.75;3.75;;;;;;;;5062904;28;45565;-79
2023/06/28 05:56:37;;;;;;;;;4.00;3.00;;;;;;;;5043483;28;47222;-78
2023/06/28 05:59:03;;;;;;;;;4.50;4.50;;;;;;;;5046366;28;45449;-78
2023/06/28 06:01:28;;;;;;;;;3.50;2.50;;;;;;;;5040723;28;45769;-76
2023/06/28 06:03:53;;;;;;;;;5.50;4.00;;;;;;;;5038400;28;45698;-75
2023/06/28 06:06:19;;;;;;;;;4.25;4.25;;;;;;;;5054431;28;45916;-74
2023/06/28 06:08:44;;;;;;;;;3.00;3.00;;;;;;;;5057804;28;46481;-76
2023/06/28 06:11:09;;;;;;;;;5.00;3.00;;;;;;;;5056818;28;45649;-76
2023/06/28 06:13:34;;;;;;;;;3.50;3.00;;;;;;;;5057397;28;45778;-76
2023/06/28 06:16:00;;;;;;;;;3.50;3.50;;;;;;;;5050193;28;46231;-77
2023/06/28 06:18:25;;;;;;;;;5.25;4.25;;;;;;;;5059584;28;45469;-78
2023/06/28 06:20:51;;;;;;;;;6.00;3.25;;;;;;;;5041597;28;45439;-75
2023/06/28 06:23:17;;;;;;;;;3.00;3.00;;;;;;;;5065677;28;45843;-76
2023/06/28 06:25:42;;;;;;;;;4.25;1.00;;;;;;;;5061591;28;45961;-76
2023/06/28 06:28:07;;;;;;;;;2.00;2.00;;;;;;;;5060948;28;46351;-76
2023/06/28 06:30:32;;;;;;;;;2.50;2.50;;;;;;;;5046799;28;46194;-77
2023/06/28 06:32:59;;;;;;;;;3.25;3.25;;;;;;;;5062964;28;46072;-75
2023/06/28 06:35:25;;;;;;;;;3.00;3.00;;;;;;;;5057990;28;46009;-75
2023/06/28 06:37:50;;;;;;;;;3.75;3.00;;;;;;;;5035292;28;48227;-76
2023/06/28 06:40:15;;;;;;;;;1.50;1.50;;;;;;;;5053777;28;46108;-79
2023/06/28 06:42:40;;;;;;;;;4.50;4.00;;;;;;;;5049952;28;45890;-79
2023/06/28 06:45:06;;;;;;;;;5.00;4.00;;;;;;;;5033708;28;46135;-78
2023/06/28 06:47:31;;;;;;;;;3.25;3.25;;;;;;;;5042995;28;45611;-79
2023/06/28 06:49:57;;;;;;;;;3.00;3.00;;;;;;;;5041472;28;45856;-80
2023/06/28 06:52:22;;;;;;;;;3.25;3.00;;;;;;;;5033124;28;45797;-82
2023/06/28 06:54:48;;;;;;;;;4.00;2.75;;;;;;;;5047772;28;45803;-84
2023/06/28 06:57:15;;;;;;;;;4.25;4.25;;;;;;;;5049994;28;45711;-82
2023/06/28 06:59:40;;;;;;;;;2.50;2.25;;;;;;;;5050862;28;46025;-83
2023/06/28 07:02:05;;;;;;;;;2.75;2.50;;;;;;;;5056499;28;45725;-81
2023/06/28 07:04:31;;;;;;;;;4.25;4.00;;;;;;;;5051775;28;45942;-81
2023/06/28 07:06:56;;;;;;;;;5.00;3.50;;;;;;;;5032846;28;47133;-82
2023/06/28 07:09:22;;;;;;;;;4.50;2.25;;;;;;;;5035153;28;45690;-83
2023/06/28 07:11:47;;;;;;;;;4.00;2.75;;;;;;;;5047345;28;45850;-82
2023/06/28 07:14:12;;;;;;;;;3.25;3.00;;;;;;;;5055158;28;45659;-79
2023/06/28 07:16:37;;;;;;;;;3.50;3.50;;;;;;;;5053471;28;46206;-78
2023/06/28 07:19:03;;;;;;;;;2.00;2.00;;;;;;;;5033646;28;45596;-78
2023/06/28 07:21:28;;;;;;;;;3.00;1.50;;;;;;;;5047975;28;45880;-76
2023/06/28 07:23:54;;;;;;;;;4.50;4.00;;;;;;;;5050541;28;45820;-78
2023/06/28 07:26:20;;;;;;;;;5.25;2.75;;;;;;;;5051954;28;46000;-75
2023/06/28 07:28:46;;;;;;;;;5.50;3.00;;;;;;;;5051834;28;45777;-76
2023/06/28 07:31:11;;;;;;;;;3.00;2.25;;;;;;;;5030046;28;45501;-80
2023/06/28 07:33:36;;;;;;;;;3.75;3.00;;;;;;;;5044528;28;45547;-75
2023/06/28 07:36:02;;;;;;;;;4.00;3.50;;;;;;;;5054041;28;46200;-75
2023/06/28 07:38:27;;;;;;;;;3.00;3.00;;;;;;;;5033147;28;45521;-75
2023/06/28 07:40:53;;;;;;;;;5.00;4.00;;;;;;;;5058737;28;45485;-76
2023/06/28 07:43:20;;;;;;;;;4.75;3.00;;;;;;;;5052114;28;45659;-77
2023/06/28 07:45:45;;;;;;;;;2.75;2.75;;;;;;;;5052819;28;46595;-77
2023/06/28 07:48:10;;;;;;;;;2.50;2.50;;;;;;;;5056696;28;45521;-76
2023/06/28 07:50:36;;;;;;;;;2.00;2.00;;;;;;;;5044257;28;46352;-74
2023/06/28 07:53:01;;;;;;;;;3.75;3.00;;;;;;;;5041433;28;45845;-76
2023/06/28 07:55:28;;;;;;;;;2.75;2.75;;;;;;;;5054246;28;45621;-75
2023/06/28 07:57:54;;;;;;;;;3.25;3.25;;;;;;;;5073199;28;45722;-75
2023/06/28 08:00:19;;;;;;;;;1.50;1.50;;;;;;;;5061401;28;45454;-75
2023/06/28 08:02:44;;;;;;;;;3.00;3.00;;;;;;;;5052014;28;45543;-75
2023/06/28 08:05:10;;;;;;;;;3.50;3.50;;;;;;;;5050849;28;45483;-77
2023/06/28 08:07:35;;;;;;;;;3.50;3.00;;;;;;;;5054916;28;45683;-76
2023/06/28 08:10:00;;;;;;;;;3.25;3.00;;;;;;;;5051172;28;46441;-77
2023/06/28 08:12:26;;;;;;;;;3.00;3.00;;;;;;;;5049960;28;46132;-76
2023/06/28 08:14:51;;;;;;;;;4.75;4.75;;;;;;;;5059729;28;45795;-76
2023/06/28 08:17:17;;;;;;;;;3.75;3.75;;;;;;;;5058176;28;45424;-76
2023/06/28 08:19:42;;;;;;;;;3.50;3.50;;;;;;;;5056199;28;45557;-76
2023/06/28 08:22:08;;;;;;;;;1.00;1.00;;;;;;;;5066303;28;45713;-76
2023/06/28 08:24:33;;;;;;;;;5.00;4.50;;;;;;;;5056435;28;46790;-75
2023/06/28 08:26:58;;;;;;;;;3.00;3.00;;;;;;;;5056190;28;45649;-76
2023/06/28 08:29:24;;;;;;;;;7.75;4.50;;;;;;;;5053517;28;45853;-76
2023/06/28 08:31:49;;;;;;;;;4.00;3.50;;;;;;;;5052738;28;45680;-76
2023/06/28 08:34:16;;;;;;;;;2.75;2.75;;;;;;;;5053058;28;45605;-76
2023/06/28 08:36:41;;;;;;;;;2.50;2.00;;;;;;;;5059858;28;45846;-75
2023/06/28 08:39:06;;;;;;;;;2.25;2.25;;;;;;;;5059743;28;45894;-75
2023/06/28 08:41:33;;;;;;;;;4.00;3.00;;;;;;;;5052444;28;45787;-75
2023/06/28 08:44:00;;;;;;;;;3.25;3.25;;;;;;;;5057970;28;45962;-76
2023/06/28 08:46:26;;;;;;;;;3.00;3.00;;;;;;;;5059787;28;45599;-76
2023/06/28 08:48:52;;;;;;;;;5.25;3.75;;;;;;;;5034703;28;45920;-75
2023/06/28 08:51:18;;;;;;;;;3.75;3.75;;;;;;;;5051448;28;45439;-76
2023/06/28 08:53:47;;;;;;;;;3.75;3.25;;;;;;;;5054103;28;45545;-76
2023/06/28 08:56:12;;;;;;;;;2.75;2.75;;;;;;;;5047252;28;45618;-76
2023/06/28 08:58:38;;;;;;;;;4.00;3.50;;;;;;;;5047699;28;45560;-76
2023/06/28 09:01:04;;;;;;;;;3.75;2.50;;;;;;;;5033240;28;45888;-77
2023/06/28 09:03:30;;;;;;;;;4.00;3.25;;;;;;;;5050549;28;46893;-76
2023/06/28 09:05:56;;;;;;;;;4.00;4.00;;;;;;;;5028530;28;46240;-77
2023/06/28 09:08:21;;;;;;;;;6.67;4.33;;;;;;;;5058200;28;45820;-76
2023/06/28 09:10:47;;;;;;;;;4.00;4.00;;;;;;;;5058288;28;45550;-76
2023/06/28 09:13:19;;;;;;;;;4.00;4.00;;;;;;;;5055913;28;45505;-74
2023/06/28 09:15:45;;;;;;;;;3.25;3.25;;;;;;;;5046198;28;45855;-76
2023/06/28 09:18:10;;;;;;;;;3.00;2.50;;;;;;;;5049006;28;45801;-76
2023/06/28 09:20:36;;;;;;;;;6.00;4.33;;;;;;;;5044154;28;45845;-75
2023/06/28 09:23:01;;;;;;;;;3.33;3.33;;;;;;;;5050126;28;45917;-77
2023/06/28 09:25:27;;;;;;;;;3.75;2.25;;;;;;;;5041066;28;45780;-76
2023/06/28 09:27:54;;;;;;;;;5.33;4.00;;;;;;;;5051963;27;45752;-75
2023/06/28 09:30:20;;;;;;;;;5.33;5.33;;;;;;;;5051595;28;45735;-76
2023/06/28 09:32:50;;;;;;;;;5.25;5.25;;;;;;;;5050434;28;45474;-76
2023/06/28 09:35:15;;;;;;;;;5.33;5.00;;;;;;;;5047247;28;45846;-75
2023/06/28 09:37:40;;;;;;;;;5.00;5.00;;;;;;;;5048373;28;45590;-77
2023/06/28 09:40:06;;;;;;;;;5.25;5.25;;;;;;;;5049941;28;45544;-76
2023/06/28 09:42:32;;;;;;;;;6.00;6.00;;;;;;;;5040045;28;45971;-76
2023/06/28 09:44:57;;;;;;;;;6.67;6.67;;;;;;;;5041624;28;47186;-76
2023/06/28 09:47:31;;;;;;;;;6.67;6.67;;;;;;;;5044478;28;45727;-76
2023/06/28 09:50:00;;;;;;;;;6.00;5.33;;;;;;;;5070055;27;45578;-76
2023/06/28 09:52:25;;;;;;;;;9.00;7.00;;;;;;;;5055462;27;45392;-76
2023/06/28 09:54:51;;;;;;;;;5.33;5.33;;;;;;;;5053947;28;45941;-77
2023/06/28 09:57:17;;;;;;;;;5.67;5.00;;;;;;;;5062977;28;45704;-75
2023/06/28 09:59:43;;;;;;;;;7.67;7.00;;;;;;;;5053435;28;45474;-77
2023/06/28 10:02:09;;;;;;;;;5.00;5.00;;;;;;;;5041307;28;45570;-75
2023/06/28 10:04:35;;;;;;;;;7.67;6.67;;;;;;;;5046624;28;45567;-77
2023/06/28 10:07:02;;;;;;;;;9.00;8.67;;;;;;;;5047561;28;45529;-75
2023/06/28 10:09:36;;;;;;;;;7.33;7.33;;;;;;;;5051549;28;45637;-77
2023/06/28 10:12:03;;;;;;;;;6.00;6.00;;;;;;;;5042433;28;46493;-78
2023/06/28 10:14:31;;;;;;;;;6.67;6.67;;;;;;;;5046363;28;45614;-74
2023/06/28 10:16:58;;;;;;;;;5.67;3.67;;;;;;;;5043114;28;45981;-78
2023/06/28 10:19:25;;;;;;;;;10.00;10.00;;;;;;;;5042237;28;45511;-77
2023/06/28 10:21:50;;;;;;;;;7.33;7.00;;;;;;;;5043737;28;47025;-76
2023/06/28 10:24:16;;;;;;;;;12.67;9.00;;;;;;;;5045090;28;45798;-76
2023/06/28 10:26:41;;;;;;;;;11.00;10.00;;;;;;;;5050339;28;45737;-76
2023/06/28 10:29:06;;;;;;;;;10.00;9.00;;;;;;;;5049549;28;45774;-75
2023/06/28 10:31:32;;;;;;;;;12.00;10.33;;;;;;;;5041636;28;46839;-76
2023/06/28 10:33:57;;;;;;;;;8.00;8.00;;;;;;;;5053257;28;45707;-77
2023/06/28 10:36:23;;;;;;;;;8.67;8.67;;;;;;;;5054111;28;45889;-77
2023/06/28 10:38:51;;;;;;;;;11.33;9.00;;;;;;;;5054217;28;45781;-76
2023/06/28 10:41:17;;;;;;;;;12.00;9.67;;;;;;;;5047473;28;46887;-76
2023/06/28 10:43:43;;;;;;;;;12.67;12.67;;;;;;;;5056899;28;45386;-77
2023/06/28 10:46:27;;;;;;;;;10.33;10.33;;;;;;;;5034439;28;45640;-79
2023/06/28 10:48:56;;;;;;;;;9.67;8.00;;;;;;;;5054909;28;45748;-77
2023/06/28 10:51:24;;;;;;;;;10.00;9.00;;;;;;;;5052898;28;45673;-78
2023/06/28 10:53:55;;;;;;;;;15.33;12.33;;;;;;;;5042441;28;45599;-77
2023/06/28 10:56:21;;;;;;;;;14.67;10.67;;;;;;;;5045384;28;45765;-76
2023/06/28 10:58:47;;;;;;;;;14.00;13.33;;;;;;;;5054593;28;45760;-77
2023/06/28 11:01:30;;;;;;;;;12.00;11.00;;;;;;;;5052550;28;46702;-76
2023/06/28 11:04:10;;;;;;;;;12.33;12.33;;;;;;;;5041856;28;45577;-78
2023/06/28 11:06:37;;;;;;;;;14.67;12.33;;;;;;;;5056102;28;45742;-76
2023/06/28 11:09:12;;;;;;;;;11.33;10.33;;;;;;;;5055062;28;45527;-76
2023/06/28 11:11:38;;;;;;;;;6.67;5.67;;;;;;;;5050722;28;45469;-78
2023/06/28 11:14:16;;;;;;;;;15.33;14.67;;;;;;;;5058665;28;45699;-77
2023/06/28 11:16:45;;;;;;;;;14.67;14.67;;;;;;;;5070222;28;45581;-78
2023/06/28 11:19:14;;;;;;;;;16.33;15.00;;;;;;;;5057962;28;45992;-78
2023/06/28 11:21:39;;;;;;;;;14.67;11.33;;;;;;;;5048659;28;46493;-76
2023/06/28 11:24:04;;;;;;;;;11.33;9.33;;;;;;;;5056465;28;45862;-78
2023/06/28 11:26:34;;;;;;;;;15.33;13.67;;;;;;;;5063635;28;45695;-75
2023/06/28 11:29:00;;;;;;;;;9.67;8.67;;;;;;;;5061031;28;45477;-75
2023/06/28 11:31:36;;;;;;;;;14.33;11.00;;;;;;;;5054961;28;45934;-78
2023/06/28 11:34:02;;;;;;;;;13.33;11.33;;;;;;;;5062703;28;45754;-77
2023/06/28 11:36:28;;;;;;;;;14.00;11.33;;;;;;;;5062402;28;45895;-75
2023/06/28 11:38:54;;;;;;;;;12.50;11.50;;;;;;;;5058897;28;45562;-76
2023/06/28 11:41:19;;;;;;;;;11.75;10.75;;;;;;;;5062107;28;46259;-77
2023/06/28 11:43:44;;;;;;;;;19.00;15.67;;;;;;;;5031366;28;45827;-76
2023/06/28 11:46:15;;;;;;;;;17.00;15.67;;;;;;;;5038174;28;45557;-76
2023/06/28 11:48:40;;;;;;;;;15.00;12.00;;;;;;;;5057503;28;45530;-77
2023/06/28 11:51:06;;;;;;;;;16.33;12.67;;;;;;;;5069469;28;46747;-76
2023/06/28 11:53:31;;;;;;;;;16.00;16.00;;;;;;;;5064463;28;45849;-76
2023/06/28 11:55:57;;;;;;;;;21.00;15.67;;;;;;;;5054258;28;46155;-76
2023/06/28 11:58:26;;;;;;;;;15.67;14.00;;;;;;;;5041190;28;46185;-82
2023/06/28 12:00:52;;;;;;;;;16.67;15.33;;;;;;;;5050066;28;46233;-78
2023/06/28 12:03:28;;;;;;;;;20.00;17.33;;;;;;;;5044495;28;45542;-77
2023/06/28 12:05:53;;;;;;;;;19.00;14.33;;;;;;;;5038771;28;45503;-78
2023/06/28 12:08:18;;;;;;;;;15.00;13.33;;;;;;;;5043448;28;45431;-79
2023/06/28 12:10:43;;;;;;;;;23.00;17.67;;;;;;;;5041532;28;45830;-78
2023/06/28 12:13:19;;;;;;;;;17.33;13.33;;;;;;;;5040334;28;45347;-78
2023/06/28 12:15:44;;;;;;;;;21.00;16.00;;;;;;;;5043997;28;45859;-78
2023/06/28 12:18:09;;;;;;;;;18.33;12.67;;;;;;;;5053075;28;45344;-78
2023/06/28 12:20:34;;;;;;;;;21.33;16.67;;;;;;;;5060450;28;45730;-81
2023/06/28 12:23:00;;;;;;;;;15.67;15.00;;;;;;;;5066809;28;45607;-79
2023/06/28 12:25:26;;;;;;;;;16.33;12.00;;;;;;;;5060541;28;45395;-79
2023/06/28 12:28:04;;;;;;;;;16.00;13.33;;;;;;;;5046334;28;45675;-79
2023/06/28 12:30:29;;;;;;;;;15.67;14.00;;;;;;;;5054284;28;45983;-79
2023/06/28 12:32:56;;;;;;;;;18.00;15.67;;;;;;;;5054585;28;45535;-77
2023/06/28 12:35:24;;;;;;;;;18.33;16.00;;;;;;;;5045686;28;45502;-79
2023/06/28 12:37:54;;;;;;;;;20.33;18.67;;;;;;;;5050505;28;45530;-80
2023/06/28 12:40:19;;;;;;;;;20.33;17.33;;;;;;;;5051597;28;45854;-79
2023/06/28 12:42:44;;;;;;;;;25.33;19.33;;;;;;;;5050096;28;45854;-79
2023/06/28 12:45:12;;;;;;;;;17.67;15.00;;;;;;;;5057486;28;45808;-80
2023/06/28 12:47:38;;;;;;;;;18.67;17.00;;;;;;;;5066988;28;45922;-78
2023/06/28 12:50:03;;;;;;;;;19.67;16.67;;;;;;;;5051660;27;45564;-80
2023/06/28 12:52:29;;;;;;;;;21.33;18.33;;;;;;;;5042754;28;45730;-79
2023/06/28 12:54:55;;;;;;;;;16.33;13.67;;;;;;;;5050244;28;45355;-80
2023/06/28 12:57:26;;;;;;;;;18.33;15.67;;;;;;;;5045883;28;45454;-81
2023/06/28 12:59:51;;;;;;;;;18.00;16.33;;;;;;;;5046193;28;47046;-83
2023/06/28 13:02:16;;;;;;;;;18.33;15.33;;;;;;;;5051120;28;45792;-80
2023/06/28 13:04:42;;;;;;;;;18.67;15.67;;;;;;;;5051859;28;45691;-80
2023/06/28 13:07:08;;;;;;;;;17.33;16.00;;;;;;;;5038165;28;46013;-79
2023/06/28 13:09:33;;;;;;;;;17.33;14.33;;;;;;;;5047084;28;45818;-80
2023/06/28 13:11:59;;;;;;;;;19.00;17.33;;;;;;;;5049220;28;45523;-79
2023/06/28 13:14:24;;;;;;;;;16.00;15.00;;;;;;;;5038917;28;45661;-79
2023/06/28 13:16:50;;;;;;;;;17.33;15.33;;;;;;;;5039025;28;45678;-81
2023/06/28 13:19:15;;;;;;;;;14.67;14.00;;;;;;;;5042143;28;45518;-83
2023/06/28 13:21:40;;;;;;;;;16.67;15.00;;;;;;;;5053848;28;45866;-81
2023/06/28 13:24:06;;;;;;;;;18.33;15.00;;;;;;;;5050426;28;45750;-81
2023/06/28 13:26:31;;;;;;;;;18.00;15.33;;;;;;;;5053663;28;45449;-81
2023/06/28 13:28:57;;;;;;;;;17.50;15.50;;;;;;;;5055222;28;45748;-81
2023/06/28 13:31:23;;;;;;;;;17.00;15.33;;;;;;;;5069070;28;45518;-79
2023/06/28 13:33:48;;;;;;;;;17.33;16.33;;;;;;;;5043237;28;45858;-80
2023/06/28 13:36:13;;;;;;;;;21.33;15.00;;;;;;;;5043803;28;45600;-78
2023/06/28 13:38:38;;;;;;;;;17.67;14.33;;;;;;;;5041190;28;46898;-78
2023/06/28 13:41:04;;;;;;;;;16.00;15.67;;;;;;;;5046310;28;45461;-79
2023/06/28 13:43:30;;;;;;;;;17.33;16.33;;;;;;;;5055609;28;45746;-78
2023/06/28 13:45:55;;;;;;;;;18.33;15.33;;;;;;;;5028803;28;46403;-79
2023/06/28 13:48:20;;;;;;;;;16.33;15.00;;;;;;;;5041607;28;46033;-79
2023/06/28 13:50:45;;;;;;;;;21.33;19.67;;;;;;;;5041628;28;45813;-78
2023/06/28 13:53:11;;;;;;;;;22.33;17.00;;;;;;;;5054220;28;45967;-79
2023/06/28 13:55:36;;;;;;;;;19.67;18.33;;;;;;;;5047000;28;45894;-77
2023/06/28 13:58:01;;;;;;;;;18.67;17.00;;;;;;;;5044290;28;45901;-77
2023/06/28 14:00:26;;;;;;;;;19.33;17.00;;;;;;;;5034774;28;46017;-78
2023/06/28 14:02:52;;;;;;;;;16.33;15.67;;;;;;;;5039009;28;46008;-78
2023/06/28 14:05:17;;;;;;;;;15.00;15.00;;;;;;;;5026696;28;46211;-80
2023/06/28 14:07:43;;;;;;;;;17.00;14.67;;;;;;;;5042306;28;46158;-79
2023/06/28 14:10:09;;;;;;;;;27.00;26.00;;;;;;;;5051478;28;46017;-79
2023/06/28 14:12:36;;;;;;;;;18.00;15.00;;;;;;;;5045208;28;45935;-80
2023/06/28 14:15:01;;;;;;;;;15.50;14.25;;;;;;;;5041692;28;45908;-79
2023/06/28 14:17:27;;;;;;;;;16.50;15.25;;;;;;;;5024915;28;47889;-77
2023/06/28 14:19:52;;;;;;;;;15.00;12.50;;;;;;;;5044384;28;45522;-79
2023/06/28 14:22:17;;;;;;;;;18.67;16.67;;;;;;;;5042247;28;45707;-78
2023/06/28 14:24:42;;;;;;;;;17.00;13.67;;;;;;;;5044482;28;45484;-76
2023/06/28 14:27:08;;;;;;;;;17.00;15.67;;;;;;;;5020518;28;47079;-78
2023/06/28 14:29:33;;;;;;;;;18.67;18.67;;;;;;;;5035563;28;45468;-79